Time;durP1;ratioP1;P1;durP2;ratioP2;P2;SDS_P1;SDS_P2;PMS_P1;PMS_P2;Temp;Humidity;BMP_temperature;BMP_pressure;BME280_temperature;BME280_humidity;BME280_pressure;Samples;Min_cycle;Max_cycle;Signal;HPM_P1;HPM_P2
2023/01/14 00:00:21;;;;;;;45.63;10.10;;;;;;;;;;4948322;28;20047;-44
2023/01/14 00:02:48;;;;;;;60.78;11.63;;;;;;;;;;4956758;28;20049;-43
2023/01/14 00:05:14;;;;;;;31.35;8.48;;;;;;;;;;4945685;29;20414;-44
2023/01/14 00:07:41;;;;;;;50.70;9.98;;;;;;;;;;4944680;29;20051;-44
2023/01/14 00:10:08;;;;;;;49.15;9.70;;;;;;;;;;4942590;29;20056;-46
2023/01/14 00:12:34;;;;;;;38.05;9.50;;;;;;;;;;4944675;29;20062;-45
2023/01/14 00:15:01;;;;;;;34.95;9.15;;;;;;;;;;4942207;28;20051;-44
2023/01/14 00:17:28;;;;;;;48.15;10.13;;;;;;;;;;4947684;28;20513;-44
2023/01/14 00:19:54;;;;;;;28.88;8.60;;;;;;;;;;4947612;28;20036;-44
2023/01/14 00:22:20;;;;;;;53.78;11.02;;;;;;;;;;4951648;29;20043;-44
2023/01/14 00:24:47;;;;;;;58.97;12.68;;;;;;;;;;4943388;29;20613;-44
2023/01/14 00:27:15;;;;;;;32.53;10.90;;;;;;;;;;4943928;28;20532;-43
2023/01/14 00:29:41;;;;;;;38.30;11.02;;;;;;;;;;4939486;28;20043;-45
2023/01/14 00:32:08;;;;;;;56.42;12.70;;;;;;;;;;4946380;28;20054;-45
2023/01/14 00:34:38;;;;;;;53.00;12.20;;;;;;;;;;4949840;29;20050;-43
2023/01/14 00:37:05;;;;;;;37.03;11.57;;;;;;;;;;4946333;28;20115;-44
2023/01/14 00:39:32;;;;;;;51.22;11.95;;;;;;;;;;4939949;28;20469;-44
2023/01/14 00:41:58;;;;;;;33.33;10.52;;;;;;;;;;4941921;29;20058;-44
2023/01/14 00:44:25;;;;;;;52.53;11.60;;;;;;;;;;4957577;28;20052;-46
2023/01/14 00:46:53;;;;;;;48.95;12.30;;;;;;;;;;4943844;29;20405;-43
2023/01/14 00:49:23;;;;;;;48.88;12.85;;;;;;;;;;4938459;29;20134;-43
2023/01/14 00:51:51;;;;;;;45.30;12.52;;;;;;;;;;4941832;28;20048;-44
2023/01/14 00:54:18;;;;;;;62.95;13.63;;;;;;;;;;4950723;28;20635;-43
2023/01/14 00:56:45;;;;;;;48.67;12.52;;;;;;;;;;4941450;29;20595;-43
2023/01/14 00:59:16;;;;;;;42.58;12.88;;;;;;;;;;4946260;28;20043;-44
2023/01/14 01:01:43;;;;;;;45.75;11.48;;;;;;;;;;4942869;28;20047;-44
2023/01/14 01:04:10;;;;;;;47.95;11.57;;;;;;;;;;4941790;28;20417;-51
2023/01/14 01:06:36;;;;;;;50.03;11.00;;;;;;;;;;4940819;28;20130;-44
2023/01/14 01:09:03;;;;;;;44.50;10.75;;;;;;;;;;4942861;29;20044;-46
2023/01/14 01:11:30;;;;;;;31.15;9.15;;;;;;;;;;4942814;28;20166;-46
2023/01/14 01:13:57;;;;;;;38.38;10.63;;;;;;;;;;4960254;28;20178;-45
2023/01/14 01:16:24;;;;;;;82.65;14.77;;;;;;;;;;4944670;28;20078;-46
2023/01/14 01:18:52;;;;;;;38.45;10.82;;;;;;;;;;4946139;28;20110;-47
2023/01/14 01:21:19;;;;;;;37.83;12.07;;;;;;;;;;4944096;28;20047;-47
2023/01/14 01:23:48;;;;;;;46.92;12.35;;;;;;;;;;4943423;29;20438;-45
2023/01/14 01:26:19;;;;;;;49.75;13.02;;;;;;;;;;4941957;28;20584;-47
2023/01/14 01:28:47;;;;;;;49.70;13.10;;;;;;;;;;4942860;28;20043;-45
2023/01/14 01:31:13;;;;;;;48.83;13.27;;;;;;;;;;4944525;28;20047;-47
2023/01/14 01:33:40;;;;;;;56.40;13.30;;;;;;;;;;4947213;29;20529;-45
2023/01/14 01:36:18;;;;;;;48.35;13.18;;;;;;;;;;4957684;28;20135;-45
2023/01/14 01:38:45;;;;;;;43.03;12.95;;;;;;;;;;4944815;28;20047;-45
2023/01/14 01:41:22;;;;;;;45.33;12.45;;;;;;;;;;4942190;29;20039;-46
2023/01/14 01:44:00;;;;;;;55.15;13.40;;;;;;;;;;4957182;28;20084;-47
2023/01/14 01:46:27;;;;;;;43.85;12.10;;;;;;;;;;4942352;29;20467;-45
2023/01/14 01:48:55;;;;;;;39.90;13.80;;;;;;;;;;4952458;28;20036;-46
2023/01/14 01:51:24;;;;;;;44.05;12.25;;;;;;;;;;4938369;29;20079;-45
2023/01/14 01:53:53;;;;;;;43.03;12.30;;;;;;;;;;4940325;29;20035;-45
2023/01/14 01:56:24;;;;;;;45.10;12.20;;;;;;;;;;4947049;28;20039;-46
2023/01/14 01:58:52;;;;;;;32.97;11.65;;;;;;;;;;4948308;29;20553;-46
2023/01/14 02:01:22;;;;;;;57.17;13.45;;;;;;;;;;4940195;29;20683;-45
2023/01/14 02:03:50;;;;;;;43.53;11.80;;;;;;;;;;4937181;29;20234;-46
2023/01/14 02:06:17;;;;;;;45.97;10.90;;;;;;;;;;4942878;28;20486;-47
2023/01/14 02:08:45;;;;;;;48.70;11.40;;;;;;;;;;4941334;29;20047;-45
2023/01/14 02:11:31;;;;;;;43.25;10.50;;;;;;;;;;4952986;28;20055;-45
2023/01/14 02:14:13;;;;;;;38.65;10.40;;;;;;;;;;4957690;28;20047;-46
2023/01/14 02:16:39;;;;;;;52.05;12.13;;;;;;;;;;4939395;28;20075;-45
2023/01/14 02:19:06;;;;;;;41.72;11.07;;;;;;;;;;4941723;29;20419;-46
2023/01/14 02:21:38;;;;;;;47.53;10.57;;;;;;;;;;4941578;28;20044;-50
2023/01/14 02:24:14;;;;;;;34.25;8.93;;;;;;;;;;4954948;28;20578;-46
2023/01/14 02:26:56;;;;;;;55.97;11.07;;;;;;;;;;4944374;29;20047;-45
2023/01/14 02:29:23;;;;;;;38.40;9.15;;;;;;;;;;4943000;29;20050;-45
2023/01/14 02:31:59;;;;;;;34.83;8.48;;;;;;;;;;4942878;28;20051;-47
2023/01/14 02:34:34;;;;;;;51.97;9.38;;;;;;;;;;4939255;28;20058;-47
2023/01/14 02:37:10;;;;;;;35.40;8.02;;;;;;;;;;4951680;28;20047;-48
2023/01/14 02:39:37;;;;;;;35.88;7.53;;;;;;;;;;4952452;28;20401;-46
2023/01/14 02:45:04;;;;;;;35.25;6.22;;;;;;;;;;4940926;29;20071;-45
2023/01/14 02:47:32;;;;;;;39.28;7.47;;;;;;;;;;4943796;28;20536;-46
2023/01/14 02:49:59;;;;;;;26.50;6.07;;;;;;;;;;4955105;28;20622;-49
2023/01/14 02:52:27;;;;;;;35.38;6.20;;;;;;;;;;4954751;28;20050;-46
2023/01/14 02:54:55;;;;;;;34.42;5.95;;;;;;;;;;4938172;29;20054;-48
2023/01/14 02:57:42;;;;;;;43.55;6.75;;;;;;;;;;4937340;28;20401;-46
2023/01/14 03:00:08;;;;;;;32.10;5.25;;;;;;;;;;4946676;29;20088;-45
2023/01/14 03:02:42;;;;;;;55.17;7.60;;;;;;;;;;4936702;28;20719;-45
2023/01/14 03:05:25;;;;;;;27.38;5.45;;;;;;;;;;4942233;29;20039;-46
2023/01/14 03:07:54;;;;;;;36.95;6.68;;;;;;;;;;4942569;29;20427;-46
2023/01/14 03:10:25;;;;;;;51.88;7.63;;;;;;;;;;4956092;28;20051;-45
2023/01/14 03:13:12;;;;;;;48.20;7.47;;;;;;;;;;4938359;29;20300;-48
2023/01/14 03:15:45;;;;;;;35.92;6.13;;;;;;;;;;4942040;29;20051;-46
2023/01/14 03:18:17;;;;;;;36.08;6.30;;;;;;;;;;4959804;28;20044;-45
2023/01/14 03:20:47;;;;;;;31.13;5.57;;;;;;;;;;4949114;28;20103;-45
2023/01/14 03:23:17;;;;;;;30.30;5.72;;;;;;;;;;4941472;28;20058;-48
2023/01/14 03:25:44;;;;;;;40.20;6.72;;;;;;;;;;4959922;28;20031;-46
2023/01/14 03:28:23;;;;;;;52.95;7.63;;;;;;;;;;4944393;28;20521;-45
2023/01/14 03:30:52;;;;;;;49.15;7.95;;;;;;;;;;4943154;29;20502;-47
2023/01/14 03:33:22;;;;;;;24.13;5.78;;;;;;;;;;4943290;29;20043;-45
2023/01/14 03:35:49;;;;;;;32.72;6.13;;;;;;;;;;4947713;29;20039;-44
2023/01/14 03:38:18;;;;;;;42.60;6.95;;;;;;;;;;4944243;29;20075;-45
2023/01/14 03:40:46;;;;;;;33.17;6.85;;;;;;;;;;4945291;29;20106;-45
2023/01/14 03:43:27;;;;;;;32.17;7.55;;;;;;;;;;4942446;29;20054;-45
2023/01/14 03:45:54;;;;;;;28.35;6.15;;;;;;;;;;4947509;28;20054;-46
2023/01/14 03:48:21;;;;;;;42.38;6.72;;;;;;;;;;4945357;28;20039;-46
2023/01/14 03:51:06;;;;;;;34.10;6.50;;;;;;;;;;4940395;29;20036;-46
2023/01/14 03:53:40;;;;;;;25.90;5.72;;;;;;;;;;4960059;28;20569;-47
2023/01/14 03:56:09;;;;;;;38.58;7.07;;;;;;;;;;4944512;29;20047;-47
2023/01/14 03:58:36;;;;;;;46.78;7.75;;;;;;;;;;4945479;29;20399;-47
2023/01/14 04:01:08;;;;;;;23.90;6.20;;;;;;;;;;4944139;28;20717;-45
2023/01/14 04:03:35;;;;;;;36.95;6.82;;;;;;;;;;4945130;28;20100;-45
2023/01/14 04:06:03;;;;;;;28.70;6.85;;;;;;;;;;4943422;28;20035;-49
2023/01/14 04:08:29;;;;;;;39.45;7.13;;;;;;;;;;4944329;28;20498;-47
2023/01/14 04:10:55;;;;;;;35.85;7.95;;;;;;;;;;4947882;29;20798;-46
2023/01/14 04:16:07;;;;;;;41.97;8.40;;;;;;;;;;4943159;29;20122;-45
2023/01/14 04:18:33;;;;;;;36.25;7.20;;;;;;;;;;4943265;28;20054;-46
2023/01/14 04:21:00;;;;;;;34.03;6.75;;;;;;;;;;4942820;29;20049;-46
2023/01/14 04:23:26;;;;;;;33.90;6.28;;;;;;;;;;4948152;29;20102;-45
2023/01/14 04:25:59;;;;;;;27.55;7.93;;;;;;;;;;4944302;28;20036;-45
2023/01/14 04:28:26;;;;;;;60.03;12.18;;;;;;;;;;4943030;29;20490;-45
2023/01/14 04:30:53;;;;;;;42.78;10.35;;;;;;;;;;4943108;28;20050;-46
2023/01/14 04:33:20;;;;;;;38.88;9.55;;;;;;;;;;4944390;28;20047;-48
2023/01/14 04:35:48;;;;;;;43.03;8.98;;;;;;;;;;4944249;28;20474;-46
2023/01/14 04:38:15;;;;;;;46.33;9.02;;;;;;;;;;4942689;29;20039;-46
2023/01/14 04:40:42;;;;;;;34.63;8.32;;;;;;;;;;4944729;28;20031;-47
2023/01/14 04:43:09;;;;;;;39.90;8.93;;;;;;;;;;4942235;29;20036;-46
2023/01/14 04:45:35;;;;;;;38.10;7.45;;;;;;;;;;4946379;28;20530;-45
2023/01/14 04:48:02;;;;;;;28.08;7.68;;;;;;;;;;4941252;28;20054;-46
2023/01/14 04:50:33;;;;;;;40.13;8.65;;;;;;;;;;4942125;29;20040;-47
2023/01/14 04:53:26;;;;;;;42.35;8.77;;;;;;;;;;4947136;29;20510;-45
2023/01/14 04:55:55;;;;;;;41.05;8.50;;;;;;;;;;4944096;28;20115;-47
2023/01/14 04:58:22;;;;;;;62.90;10.27;;;;;;;;;;4942623;29;20050;-45
2023/01/14 05:00:50;;;;;;;30.38;7.65;;;;;;;;;;4942034;29;20286;-45
2023/01/14 05:03:17;;;;;;;40.13;8.60;;;;;;;;;;4946967;28;20130;-45
2023/01/14 05:05:44;;;;;;;39.45;9.02;;;;;;;;;;4943905;28;20043;-47
2023/01/14 05:08:11;;;;;;;41.03;9.23;;;;;;;;;;4947959;28;20039;-45
2023/01/14 05:10:38;;;;;;;45.13;8.90;;;;;;;;;;4946413;28;20065;-47
2023/01/14 05:13:07;;;;;;;29.08;8.63;;;;;;;;;;4942079;28;20046;-45
2023/01/14 05:15:36;;;;;;;36.72;9.15;;;;;;;;;;4945164;28;20094;-45
2023/01/14 05:18:03;;;;;;;42.20;10.80;;;;;;;;;;4940001;29;20483;-45
2023/01/14 05:20:29;;;;;;;49.28;10.88;;;;;;;;;;4942130;28;20051;-45
2023/01/14 05:23:00;;;;;;;49.92;13.10;;;;;;;;;;4945304;28;20043;-46
2023/01/14 05:25:28;;;;;;;62.03;14.50;;;;;;;;;;4945474;28;20130;-46
2023/01/14 05:27:57;;;;;;;38.40;12.68;;;;;;;;;;4942799;28;20048;-45
2023/01/14 05:30:24;;;;;;;54.35;13.57;;;;;;;;;;4942462;28;20046;-45
2023/01/14 05:32:50;;;;;;;43.53;12.13;;;;;;;;;;4946223;29;20659;-45
2023/01/14 05:35:17;;;;;;;36.53;12.02;;;;;;;;;;4942411;29;20046;-45
2023/01/14 05:37:43;;;;;;;30.98;9.70;;;;;;;;;;4943280;28;20043;-47
2023/01/14 05:40:10;;;;;;;48.67;9.98;;;;;;;;;;4941799;28;20047;-46
2023/01/14 05:45:37;;;;;;;31.30;7.93;;;;;;;;;;4943570;29;20040;-46
2023/01/14 05:48:04;;;;;;;30.02;7.50;;;;;;;;;;4944705;29;20118;-45
2023/01/14 05:50:31;;;;;;;39.25;9.32;;;;;;;;;;4943028;28;20043;-46
2023/01/14 05:52:58;;;;;;;29.00;6.05;;;;;;;;;;4942614;28;20095;-45
2023/01/14 05:55:24;;;;;;;44.47;7.90;;;;;;;;;;4949963;29;20043;-46
2023/01/14 05:57:50;;;;;;;24.33;6.47;;;;;;;;;;4939927;28;20050;-45
2023/01/14 06:08:34;;;;;;;38.22;6.90;;;;;;;;;;4939937;29;20051;-45
2023/01/14 06:11:01;;;;;;;28.52;6.28;;;;;;;;;;4943840;28;20054;-45
2023/01/14 06:13:27;;;;;;;49.25;8.23;;;;;;;;;;4942607;28;20039;-45
2023/01/14 06:15:55;;;;;;;33.97;6.47;;;;;;;;;;4941164;29;20048;-45
2023/01/14 06:18:23;;;;;;;38.28;6.50;;;;;;;;;;4942810;29;20067;-45
2023/01/14 06:20:50;;;;;;;30.55;6.38;;;;;;;;;;4942989;29;20050;-45
2023/01/14 06:23:17;;;;;;;37.65;6.47;;;;;;;;;;4943384;28;20733;-45
2023/01/14 06:25:45;;;;;;;43.70;7.55;;;;;;;;;;4942838;28;20084;-45
2023/01/14 06:28:12;;;;;;;25.45;6.22;;;;;;;;;;4941601;28;20402;-45
2023/01/14 06:30:39;;;;;;;55.97;8.98;;;;;;;;;;4942303;29;20059;-46
2023/01/14 06:33:08;;;;;;;30.95;6.35;;;;;;;;;;4950237;28;20042;-45
2023/01/14 06:35:39;;;;;;;51.78;8.05;;;;;;;;;;4947766;28;20102;-45
2023/01/14 06:38:05;;;;;;;59.47;9.23;;;;;;;;;;4941594;28;20045;-47
2023/01/14 06:40:32;;;;;;;39.53;7.22;;;;;;;;;;4941262;29;20408;-46
2023/01/14 06:42:58;;;;;;;17.40;5.85;;;;;;;;;;4942721;29;20051;-46
2023/01/14 06:45:25;;;;;;;58.13;9.52;;;;;;;;;;4942383;28;20043;-46
2023/01/14 06:47:52;;;;;;;29.52;6.72;;;;;;;;;;4942523;28;20064;-46
2023/01/14 06:50:19;;;;;;;33.00;8.60;;;;;;;;;;4944884;28;20046;-45
2023/01/14 06:52:47;;;;;;;49.83;8.80;;;;;;;;;;4940824;28;20031;-45
2023/01/14 06:55:13;;;;;;;37.60;8.55;;;;;;;;;;4941506;28;20549;-45
2023/01/14 06:57:40;;;;;;;57.42;11.65;;;;;;;;;;4940718;29;20418;-46
2023/01/14 07:00:07;;;;;;;43.55;11.85;;;;;;;;;;4941788;29;20410;-46
2023/01/14 07:02:34;;;;;;;56.88;13.23;;;;;;;;;;4943117;28;20043;-45
2023/01/14 07:05:00;;;;;;;40.25;12.02;;;;;;;;;;4943624;28;20109;-47
2023/01/14 07:07:27;;;;;;;58.70;13.70;;;;;;;;;;4942723;29;20047;-45
2023/01/14 07:09:53;;;;;;;44.42;11.82;;;;;;;;;;4941539;28;20583;-46
2023/01/14 07:12:20;;;;;;;42.47;12.45;;;;;;;;;;4941717;29;20406;-46
2023/01/14 07:14:46;;;;;;;47.95;12.40;;;;;;;;;;4939460;28;20100;-48
2023/01/14 07:17:13;;;;;;;56.92;12.57;;;;;;;;;;4938700;29;20044;-45
2023/01/14 07:19:39;;;;;;;34.58;9.88;;;;;;;;;;4942080;28;20524;-47
2023/01/14 07:22:06;;;;;;;41.50;10.00;;;;;;;;;;4945355;29;20510;-46
2023/01/14 07:24:32;;;;;;;49.28;10.88;;;;;;;;;;4941364;28;20160;-46
2023/01/14 07:26:59;;;;;;;37.20;9.60;;;;;;;;;;4939602;29;20094;-45
2023/01/14 07:29:25;;;;;;;26.30;7.68;;;;;;;;;;4945069;28;20043;-46
2023/01/14 07:31:52;;;;;;;38.05;8.55;;;;;;;;;;4940914;29;20387;-45
2023/01/14 07:34:19;;;;;;;39.85;8.68;;;;;;;;;;4940408;28;20501;-45
2023/01/14 07:36:45;;;;;;;57.15;10.13;;;;;;;;;;4939991;29;20054;-46
2023/01/14 07:39:11;;;;;;;43.58;10.00;;;;;;;;;;4941404;28;20491;-46
2023/01/14 07:41:38;;;;;;;35.30;8.77;;;;;;;;;;4943064;29;20378;-46
2023/01/14 07:44:05;;;;;;;39.35;9.93;;;;;;;;;;4941799;28;20048;-47
2023/01/14 07:46:32;;;;;;;69.82;12.25;;;;;;;;;;4940463;28;20044;-45
2023/01/14 07:48:59;;;;;;;37.92;9.45;;;;;;;;;;4940587;28;20047;-45
2023/01/14 07:51:26;;;;;;;40.13;9.77;;;;;;;;;;4942732;29;20747;-47
2023/01/14 07:53:52;;;;;;;40.83;10.35;;;;;;;;;;4938242;28;20130;-46
2023/01/14 07:56:18;;;;;;;41.33;9.60;;;;;;;;;;4940984;29;20044;-48
2023/01/14 07:58:46;;;;;;;42.95;9.65;;;;;;;;;;4941662;29;20057;-46
2023/01/14 08:01:12;;;;;;;40.08;8.75;;;;;;;;;;4944576;28;20071;-46
2023/01/14 08:03:39;;;;;;;37.03;7.68;;;;;;;;;;4945268;29;20524;-45
2023/01/14 08:06:06;;;;;;;30.95;7.75;;;;;;;;;;4946848;28;20050;-45
2023/01/14 08:08:33;;;;;;;50.55;8.90;;;;;;;;;;4948464;28;20056;-45
2023/01/14 08:11:00;;;;;;;34.10;8.73;;;;;;;;;;4943542;28;20090;-47
2023/01/14 08:13:27;;;;;;;43.15;7.95;;;;;;;;;;4943841;29;20059;-46
2023/01/14 08:15:54;;;;;;;36.80;7.97;;;;;;;;;;4943458;29;20414;-46
2023/01/14 08:18:21;;;;;;;31.17;7.13;;;;;;;;;;4939745;28;20131;-45
2023/01/14 08:20:47;;;;;;;38.20;8.60;;;;;;;;;;4948060;28;20039;-45
2023/01/14 08:23:13;;;;;;;38.97;7.95;;;;;;;;;;4944681;29;20039;-45
2023/01/14 08:25:40;;;;;;;55.03;9.93;;;;;;;;;;4944724;29;20051;-46
2023/01/14 08:28:06;;;;;;;44.08;7.90;;;;;;;;;;4943463;29;20036;-46
2023/01/14 08:30:33;;;;;;;43.55;8.68;;;;;;;;;;4946143;29;20051;-46
2023/01/14 08:32:59;;;;;;;29.85;7.93;;;;;;;;;;4944119;28;20042;-45
2023/01/14 08:35:26;;;;;;;36.70;8.00;;;;;;;;;;4943573;29;20043;-47
2023/01/14 08:37:52;;;;;;;38.75;8.13;;;;;;;;;;4945487;29;20042;-45
2023/01/14 08:40:19;;;;;;;53.47;8.98;;;;;;;;;;4944262;28;20082;-46
2023/01/14 08:42:45;;;;;;;41.22;8.15;;;;;;;;;;4943570;28;20081;-46
2023/01/14 08:45:12;;;;;;;37.05;8.63;;;;;;;;;;4943672;29;20035;-46
2023/01/14 08:47:39;;;;;;;47.78;8.68;;;;;;;;;;4947111;28;20047;-45
2023/01/14 08:50:05;;;;;;;35.30;7.93;;;;;;;;;;4943737;28;20043;-45
2023/01/14 08:52:32;;;;;;;56.30;8.48;;;;;;;;;;4942531;29;20051;-45
2023/01/14 08:54:58;;;;;;;28.85;4.85;;;;;;;;;;4943185;29;20047;-46
2023/01/14 08:57:25;;;;;;;31.83;5.65;;;;;;;;;;4944569;28;20070;-44
2023/01/14 08:59:51;;;;;;;32.42;5.20;;;;;;;;;;4944955;28;20046;-43
2023/01/14 09:02:18;;;;;;;39.13;4.78;;;;;;;;;;4945530;28;20477;-46
2023/01/14 09:04:44;;;;;;;31.77;4.32;;;;;;;;;;4946320;28;20083;-45
2023/01/14 09:18:12;;;;;;;30.40;4.82;;;;;;;;;;4942554;29;20048;-46
2023/01/14 09:20:40;;;;;;;31.83;5.05;;;;;;;;;;4945790;28;20036;-46
2023/01/14 09:23:08;;;;;;;27.45;4.55;;;;;;;;;;4943482;29;20047;-45
2023/01/14 09:25:35;;;;;;;40.55;5.35;;;;;;;;;;4942753;29;20062;-47
2023/01/14 09:28:02;;;;;;;26.38;4.55;;;;;;;;;;4945312;28;20040;-44
2023/01/14 09:30:29;;;;;;;23.52;3.85;;;;;;;;;;4943365;29;20473;-44
2023/01/14 09:32:58;;;;;;;18.88;3.35;;;;;;;;;;4940798;28;20119;-46
2023/01/14 09:35:25;;;;;;;25.67;4.47;;;;;;;;;;4943244;29;20047;-46
2023/01/14 09:37:51;;;;;;;29.77;4.55;;;;;;;;;;4943109;29;23692;-46
2023/01/14 09:40:18;;;;;;;39.70;5.10;;;;;;;;;;4944540;28;20043;-47
2023/01/14 09:42:47;;;;;;;28.55;4.75;;;;;;;;;;4945481;28;20058;-46
2023/01/14 09:45:16;;;;;;;36.10;5.45;;;;;;;;;;4940799;28;20039;-46
2023/01/14 09:47:43;;;;;;;39.80;8.02;;;;;;;;;;4944948;28;20047;-46
2023/01/14 09:50:14;;;;;;;38.20;7.28;;;;;;;;;;4941658;29;20126;-46
2023/01/14 09:52:46;;;;;;;50.13;6.97;;;;;;;;;;4941775;29;20043;-44
2023/01/14 09:55:18;;;;;;;31.65;8.05;;;;;;;;;;4939457;28;20421;-46
2023/01/14 09:57:55;;;;;;;51.70;9.73;;;;;;;;;;4945251;29;20444;-46
2023/01/14 10:00:31;;;;;;;34.22;8.55;;;;;;;;;;4945487;28;20053;-44
2023/01/14 10:03:10;;;;;;;25.70;7.45;;;;;;;;;;4940422;29;20462;-45
2023/01/14 10:05:37;;;;;;;35.92;7.32;;;;;;;;;;4945327;28;20070;-45
2023/01/14 10:08:05;;;;;;;31.92;6.38;;;;;;;;;;4942837;28;20164;-45
2023/01/14 10:10:35;;;;;;;66.25;10.82;;;;;;;;;;4940756;28;20047;-44
2023/01/14 10:13:05;;;;;;;37.97;6.93;;;;;;;;;;4942269;29;20048;-45
2023/01/14 10:15:35;;;;;;;23.92;6.13;;;;;;;;;;4944202;28;20043;-46
2023/01/14 10:18:11;;;;;;;39.63;6.75;;;;;;;;;;4943422;28;20465;-45
2023/01/14 10:20:53;;;;;;;52.67;8.35;;;;;;;;;;4941572;29;20061;-45
2023/01/14 10:23:24;;;;;;;39.45;6.07;;;;;;;;;;4942083;28;20039;-45
2023/01/14 10:25:52;;;;;;;27.48;4.25;;;;;;;;;;4943096;29;20494;-46
2023/01/14 10:28:27;;;;;;;34.40;5.30;;;;;;;;;;4942115;28;20163;-47
2023/01/14 10:30:54;;;;;;;25.73;3.92;;;;;;;;;;4940512;28;20051;-43
2023/01/14 10:33:22;;;;;;;32.10;4.78;;;;;;;;;;4941578;28;20047;-44
2023/01/14 10:35:52;;;;;;;40.63;6.45;;;;;;;;;;4945281;29;20038;-43
2023/01/14 10:38:20;;;;;;;24.83;4.63;;;;;;;;;;4941340;28;20035;-43
2023/01/14 10:40:48;;;;;;;48.05;5.78;;;;;;;;;;4942100;29;20109;-45
2023/01/14 10:43:18;;;;;;;40.25;6.07;;;;;;;;;;4940556;29;20042;-46
2023/01/14 10:45:45;;;;;;;31.63;5.05;;;;;;;;;;4946154;29;20134;-46
2023/01/14 10:48:16;;;;;;;33.00;5.25;;;;;;;;;;4940110;28;20031;-48
2023/01/14 10:50:43;;;;;;;36.05;5.70;;;;;;;;;;4941493;28;20049;-44
2023/01/14 10:53:14;;;;;;;33.35;5.63;;;;;;;;;;4942058;29;20502;-46
2023/01/14 10:55:45;;;;;;;40.00;5.45;;;;;;;;;;4941939;29;20075;-46
2023/01/14 10:58:14;;;;;;;33.50;5.22;;;;;;;;;;4944612;29;20031;-47
2023/01/14 11:00:42;;;;;;;32.08;5.32;;;;;;;;;;4941470;29;20497;-47
2023/01/14 11:03:10;;;;;;;35.75;5.68;;;;;;;;;;4940530;28;20039;-44
2023/01/14 11:05:38;;;;;;;33.25;5.07;;;;;;;;;;4944132;29;20491;-45
2023/01/14 11:08:13;;;;;;;33.55;5.43;;;;;;;;;;4940791;28;20028;-46
2023/01/14 11:10:41;;;;;;;52.53;7.13;;;;;;;;;;4939933;28;20126;-46
2023/01/14 11:13:23;;;;;;;25.70;5.05;;;;;;;;;;4940363;28;20050;-46
2023/01/14 11:15:50;;;;;;;30.80;5.63;;;;;;;;;;4945782;29;20099;-47
2023/01/14 11:18:19;;;;;;;36.42;6.07;;;;;;;;;;4941306;28;20070;-46
2023/01/14 11:20:53;;;;;;;49.00;6.63;;;;;;;;;;4939740;29;20070;-44
2023/01/14 11:23:26;;;;;;;45.90;6.50;;;;;;;;;;4945541;29;20039;-44
2023/01/14 11:25:52;;;;;;;29.73;5.38;;;;;;;;;;4943833;28;20043;-43
2023/01/14 11:28:19;;;;;;;40.17;6.30;;;;;;;;;;4940999;28;20075;-44
2023/01/14 11:30:47;;;;;;;41.25;6.00;;;;;;;;;;4940908;28;20058;-44
2023/01/14 11:33:20;;;;;;;32.20;5.88;;;;;;;;;;4941611;29;20414;-46
2023/01/14 11:36:10;;;;;;;25.20;4.63;;;;;;;;;;4946042;28;20091;-44
2023/01/14 11:38:43;;;;;;;49.13;7.93;;;;;;;;;;4943497;28;20058;-45
2023/01/14 11:41:31;;;;;;;38.80;5.75;;;;;;;;;;4944486;28;20047;-44
2023/01/14 11:44:00;;;;;;;24.38;4.63;;;;;;;;;;4946757;29;20035;-45
2023/01/14 11:46:27;;;;;;;50.22;7.70;;;;;;;;;;4944896;29;20601;-45
2023/01/14 11:49:16;;;;;;;32.65;6.18;;;;;;;;;;4943311;28;20043;-44
2023/01/14 11:51:57;;;;;;;37.17;6.78;;;;;;;;;;4933710;28;20064;-44
2023/01/14 11:54:24;;;;;;;45.00;7.28;;;;;;;;;;4945645;29;20462;-44
2023/01/14 11:56:50;;;;;;;35.70;7.07;;;;;;;;;;4944266;28;20058;-45
2023/01/14 11:59:28;;;;;;;41.97;6.30;;;;;;;;;;4946543;29;20504;-44
2023/01/14 12:02:00;;;;;;;29.67;5.55;;;;;;;;;;4947046;28;20047;-44
2023/01/14 12:04:33;;;;;;;46.53;6.93;;;;;;;;;;4943287;28;20763;-45
2023/01/14 12:07:04;;;;;;;28.15;4.90;;;;;;;;;;4945992;28;20039;-44
2023/01/14 12:09:53;;;;;;;23.83;4.90;;;;;;;;;;4957807;28;21148;-46
2023/01/14 12:16:48;;;;;;;35.13;6.20;;;;;;;;;;4944229;28;20051;-43
2023/01/14 12:18:18;;;;;;;46.88;7.05;;;;;;;;;;4944716;28;20530;-45
2023/01/14 12:20:45;;;;;;;37.58;7.15;;;;;;;;;;4941957;28;20044;-44
2023/01/14 12:23:17;;;;;;;38.78;5.93;;;;;;;;;;4947861;28;20039;-46
2023/01/14 12:25:46;;;;;;;36.72;6.13;;;;;;;;;;4943943;29;20433;-46
2023/01/14 12:28:22;;;;;;;31.95;5.30;;;;;;;;;;4944032;29;20533;-44
2023/01/14 12:30:48;;;;;;;30.42;5.35;;;;;;;;;;4941963;29;20071;-44
2023/01/14 12:33:34;;;;;;;30.17;5.28;;;;;;;;;;4947139;29;20517;-43
2023/01/14 12:36:20;;;;;;;25.33;4.20;;;;;;;;;;4944425;28;20043;-45
2023/01/14 12:47:16;;;;;;;40.08;7.28;;;;;;;;;;4945458;28;20043;-47
2023/01/14 12:49:43;;;;;;;41.63;5.70;;;;;;;;;;4943823;29;20031;-44
2023/01/14 12:52:11;;;;;;;41.03;6.55;;;;;;;;;;4942981;28;20115;-43
2023/01/14 12:54:38;;;;;;;46.97;7.45;;;;;;;;;;4948985;29;20047;-45
2023/01/14 12:57:06;;;;;;;28.55;4.43;;;;;;;;;;4940358;29;20054;-44
2023/01/14 12:59:33;;;;;;;27.98;5.22;;;;;;;;;;4946214;29;20454;-47
2023/01/14 13:02:01;;;;;;;40.20;6.00;;;;;;;;;;4945404;29;20039;-44
2023/01/14 13:04:37;;;;;;;38.00;6.05;;;;;;;;;;4943399;28;20043;-43
2023/01/14 13:07:04;;;;;;;45.60;7.45;;;;;;;;;;4955973;28;20052;-44
2023/01/14 13:09:42;;;;;;;45.50;7.80;;;;;;;;;;4943581;28;20035;-45
2023/01/14 13:12:20;;;;;;;30.75;5.78;;;;;;;;;;4946546;29;20514;-46
2023/01/14 13:14:51;;;;;;;33.97;6.85;;;;;;;;;;4946274;28;20035;-46
2023/01/14 13:17:20;;;;;;;28.48;5.45;;;;;;;;;;4944167;29;20047;-47
2023/01/14 13:19:49;;;;;;;36.65;6.68;;;;;;;;;;4943566;29;20044;-46
2023/01/14 13:22:34;;;;;;;34.38;6.60;;;;;;;;;;4941413;28;20049;-45
2023/01/14 13:25:04;;;;;;;32.53;6.13;;;;;;;;;;4943569;29;20050;-44
2023/01/14 13:27:30;;;;;;;23.42;5.75;;;;;;;;;;4944819;29;20034;-47
2023/01/14 13:30:16;;;;;;;29.85;5.55;;;;;;;;;;4943984;29;20047;-45
2023/01/14 13:33:01;;;;;;;48.08;7.30;;;;;;;;;;4945093;29;20083;-45
2023/01/14 13:35:28;;;;;;;25.75;5.45;;;;;;;;;;4942678;28;20106;-46
2023/01/14 13:37:56;;;;;;;36.88;7.30;;;;;;;;;;4943026;29;20048;-46
2023/01/14 13:40:24;;;;;;;27.35;6.32;;;;;;;;;;4940761;29;20043;-46
2023/01/14 13:42:55;;;;;;;30.33;5.80;;;;;;;;;;4946373;29;20138;-49
2023/01/14 13:45:26;;;;;;;37.28;7.28;;;;;;;;;;4942920;29;20099;-45
2023/01/14 13:47:54;;;;;;;38.17;6.90;;;;;;;;;;4940738;29;20070;-46
2023/01/14 13:50:27;;;;;;;62.28;10.32;;;;;;;;;;4946511;29;20043;-45
2023/01/14 13:52:55;;;;;;;32.07;7.23;;;;;;;;;;4958005;28;20512;-47
2023/01/14 13:55:24;;;;;;;34.88;6.70;;;;;;;;;;4945036;29;20044;-46
2023/01/14 13:57:52;;;;;;;44.83;8.55;;;;;;;;;;4942710;28;20056;-45
2023/01/14 14:00:19;;;;;;;50.75;7.82;;;;;;;;;;4949460;28;20051;-47
2023/01/14 14:02:49;;;;;;;64.40;9.48;;;;;;;;;;4947229;29;20074;-46
2023/01/14 14:05:27;;;;;;;42.50;8.20;;;;;;;;;;4940757;29;20414;-46
2023/01/14 14:08:01;;;;;;;29.40;5.97;;;;;;;;;;4943550;29;20053;-45
2023/01/14 14:10:30;;;;;;;49.35;6.97;;;;;;;;;;4940606;29;20044;-46
2023/01/14 14:15:51;;;;;;;44.08;9.60;;;;;;;;;;4936625;28;20498;-46
2023/01/14 14:18:26;;;;;;;42.28;8.30;;;;;;;;;;4941415;29;20087;-46
2023/01/14 14:20:54;;;;;;;40.13;9.63;;;;;;;;;;4945357;29;20805;-49
2023/01/14 14:23:23;;;;;;;50.15;8.02;;;;;;;;;;4941065;28;20039;-47
2023/01/14 14:25:50;;;;;;;38.67;8.75;;;;;;;;;;4942249;28;20035;-45
2023/01/14 14:28:20;;;;;;;47.70;11.45;;;;;;;;;;4941126;29;20057;-45
2023/01/14 14:30:49;;;;;;;36.58;8.57;;;;;;;;;;4946121;28;20043;-45
2023/01/14 14:33:33;;;;;;;31.52;7.03;;;;;;;;;;4940594;28;20040;-45
2023/01/14 14:36:01;;;;;;;22.30;6.28;;;;;;;;;;4939833;29;20405;-46
2023/01/14 14:38:28;;;;;;;44.60;9.88;;;;;;;;;;4939496;28;20044;-47
2023/01/14 14:40:55;;;;;;;47.95;15.77;;;;;;;;;;4941623;29;20125;-47
2023/01/14 14:43:25;;;;;;;71.55;35.55;;;;;;;;;;4942519;28;20047;-46
2023/01/14 14:46:05;;;;;;;47.88;18.05;;;;;;;;;;4939545;29;20514;-47
2023/01/14 14:48:33;;;;;;;48.42;10.95;;;;;;;;;;4939164;29;20043;-45
2023/01/14 14:51:12;;;;;;;25.63;7.65;;;;;;;;;;4944366;29;20039;-45
2023/01/14 14:53:44;;;;;;;47.35;10.57;;;;;;;;;;4944387;29;20052;-45
2023/01/14 14:56:12;;;;;;;29.00;8.00;;;;;;;;;;4944024;29;20179;-45
2023/01/14 14:58:43;;;;;;;60.53;10.07;;;;;;;;;;4940705;29;20051;-46
2023/01/14 15:01:10;;;;;;;32.65;7.60;;;;;;;;;;4943383;28;20047;-45
2023/01/14 15:03:38;;;;;;;38.55;9.43;;;;;;;;;;4942005;28;20055;-46
2023/01/14 15:06:10;;;;;;;41.42;10.13;;;;;;;;;;4939501;28;20051;-45
2023/01/14 15:08:59;;;;;;;41.85;10.80;;;;;;;;;;4942383;28;20550;-47
2023/01/14 15:11:27;;;;;;;43.45;13.23;;;;;;;;;;4942992;28;20098;-46
2023/01/14 15:13:54;;;;;;;42.42;12.50;;;;;;;;;;4942751;29;20047;-45
2023/01/14 15:16:24;;;;;;;38.80;11.95;;;;;;;;;;4943526;28;20050;-46
2023/01/14 15:18:50;;;;;;;52.03;14.98;;;;;;;;;;4942088;29;20426;-45
2023/01/14 15:21:20;;;;;;;37.42;11.68;;;;;;;;;;4940486;29;20040;-46